Current | Radar | Forecast | Satellite
Updated: 9:56 PM CDT on March 28, 2017
Observed at Auburn, Alabama
Temperature 19°C
Humidity 84%
Dew Point 17°C
Wind North at 0 km/h
Pressure 1018 hPa (Rising)
Conditions Clear
Visibility 16.1 kilometers
UV 0 out of 16
Clouds Clear (CLR) : -
Yesterday's Maximum 27°C
Yesterday's Minimum 17°C
Yesterday's Cooling Degree Days 6
Sunrise6:34 AM CDT
Sunset6:58 PM CDT
Moon Rise7:06 AM CDT
Moon Set7:49 PM CDT
Moon PhaseMoon Phase
New Moon
Raw METARMETAR KAUO 290256Z AUTO 00000KT 10SM CLR 19/17 A3002 RMK AO2 SLP179 T01940167 52010

Opelika, AL

Current Radar

Radar Map
Zoom into radar image
Zoom into animated radar image


Scientific forecaster discussion (NWS)

Units: English | Metric

Find the Weather for any City, State or Zipcode, or Country:

U.S. State List | Severe Weather | Tropical Storms | Ski Conditions
United States | Canada | Central America | South America | Asia | Europe | Australia | Africa | Islands

Weather Underground

© Copyright 2017
The Weather Company, LLC